Time;durP1;ratioP1;P1;durP2;ratioP2;P2;SDS_P1;SDS_P2;PMS_P1;PMS_P2;Temp;Humidity;BMP_temperature;BMP_pressure;BME280_temperature;BME280_humidity;BME280_pressure;Samples;Min_cycle;Max_cycle;Signal;HPM_P1;HPM_P2
2021/08/25 00:02:04;;;;;;;3.90;1.90;;;;;;;20.28;55.49;98715.00;5113512;28;20367;-50
2021/08/25 00:04:30;;;;;;;8.98;2.40;;;;;;;20.37;55.61;98715.28;5095229;28;20016;-49
2021/08/25 00:06:56;;;;;;;5.45;2.30;;;;;;;20.60;54.74;98710.56;5113445;28;20577;-50
2021/08/25 00:09:24;;;;;;;5.57;2.88;;;;;;;20.67;53.86;98713.78;5112481;28;20020;-50
2021/08/25 00:11:50;;;;;;;15.93;14.27;;;;;;;20.70;53.71;98723.91;5113103;28;20044;-49
2021/08/25 00:14:16;;;;;;;10.45;3.60;;;;;;;20.87;53.78;98715.66;5112024;28;20077;-50
2021/08/25 00:16:41;;;;;;;5.10;3.20;;;;;;;21.08;53.43;98714.56;5094929;28;20030;-50
2021/08/25 00:19:07;;;;;;;9.10;2.70;;;;;;;21.12;53.17;98707.59;5113261;28;20024;-50
2021/08/25 00:21:33;;;;;;;5.32;2.35;;;;;;;21.14;52.93;98710.00;5113119;28;20024;-50
2021/08/25 00:23:58;;;;;;;10.63;6.35;;;;;;;21.18;52.64;98712.94;5113117;28;20140;-50
2021/08/25 00:26:24;;;;;;;5.40;2.60;;;;;;;21.09;52.66;98710.03;5113331;28;20076;-49
2021/08/25 00:28:50;;;;;;;3.42;2.40;;;;;;;20.76;52.36;98706.81;5113092;28;20026;-50
2021/08/25 00:31:15;;;;;;;4.97;2.83;;;;;;;20.34;53.52;98710.47;5094713;28;20027;-50
2021/08/25 00:33:41;;;;;;;6.97;6.28;;;;;;;20.06;54.57;98701.91;5112988;28;20030;-50
2021/08/25 00:36:07;;;;;;;27.33;25.00;;;;;;;19.86;55.57;98707.13;5112931;28;20020;-50
2021/08/25 00:38:33;;;;;;;13.38;12.27;;;;;;;19.79;56.15;98702.06;5111580;28;20110;-50
2021/08/25 00:40:58;;;;;;;6.43;4.55;;;;;;;19.65;56.36;98699.03;5112847;28;20030;-50
2021/08/25 00:43:24;;;;;;;40.13;36.38;;;;;;;19.50;56.65;98701.63;5094405;28;20051;-50
2021/08/25 00:45:50;;;;;;;6.65;5.45;;;;;;;19.34;57.15;98693.56;5112773;28;20031;-49
2021/08/25 00:48:17;;;;;;;12.48;8.35;;;;;;;19.35;57.59;98694.34;5094404;28;20514;-50
2021/08/25 00:50:46;;;;;;;7.13;6.43;;;;;;;19.38;57.44;98693.03;5094341;28;20165;-49
2021/08/25 00:53:12;;;;;;;14.20;12.75;;;;;;;19.41;57.32;98695.19;5112654;28;20103;-50
2021/08/25 00:55:39;;;;;;;15.82;12.68;;;;;;;19.48;57.35;98698.44;5112594;28;20157;-50
2021/08/25 00:58:08;;;;;;;10.13;5.95;;;;;;;19.55;57.14;98694.44;5112582;28;20015;-49
2021/08/25 01:00:42;;;;;;;14.75;13.30;;;;;;;19.54;56.76;98694.72;5112493;28;20028;-50
2021/08/25 01:03:18;;;;;;;6.90;5.25;;;;;;;19.39;57.43;98697.31;5112477;28;20020;-49
2021/08/25 01:05:47;;;;;;;4.05;2.50;;;;;;;19.35;57.42;98689.81;5112473;28;20401;-49
2021/08/25 01:08:15;;;;;;;6.70;2.30;;;;;;;19.44;57.47;98700.00;5112494;28;20130;-49
2021/08/25 01:10:41;;;;;;;4.50;2.05;;;;;;;19.65;57.02;98698.25;5112387;28;20019;-50
2021/08/25 01:13:09;;;;;;;30.88;25.90;;;;;;;19.81;56.45;98696.47;5093685;28;20523;-50
2021/08/25 01:15:40;;;;;;;12.88;11.65;;;;;;;19.97;55.99;98695.47;5110960;28;20118;-49
2021/08/25 01:18:13;;;;;;;5.53;2.15;;;;;;;20.11;55.60;98693.91;5112298;28;20045;-50
2021/08/25 01:20:42;;;;;;;7.57;2.40;;;;;;;20.34;54.97;98699.81;5112016;28;20106;-50
2021/08/25 01:23:08;;;;;;;51.00;46.15;;;;;;;20.35;54.69;98698.75;5112180;28;20030;-49
2021/08/25 01:25:34;;;;;;;7.63;5.22;;;;;;;20.30;54.56;98714.72;5112134;28;20111;-49
2021/08/25 01:28:03;;;;;;;10.55;3.40;;;;;;;20.27;54.66;98705.41;5112244;28;20020;-50
2021/08/25 01:30:32;;;;;;;5.82;4.25;;;;;;;20.23;54.62;98701.66;5112154;28;20023;-50
2021/08/25 01:33:01;;;;;;;6.22;5.63;;;;;;;20.08;54.81;98705.09;5112194;28;20404;-50
2021/08/25 01:35:42;;;;;;;5.07;2.08;;;;;;;19.93;55.20;98711.16;5112159;28;20093;-50
2021/08/25 01:38:24;;;;;;;4.50;1.83;;;;;;;19.86;55.57;98709.78;5112118;28;20086;-50
2021/08/25 01:40:49;;;;;;;2.97;1.98;;;;;;;19.83;55.56;98713.78;5112384;28;20028;-49
2021/08/25 01:43:15;;;;;;;5.43;3.08;;;;;;;19.82;55.73;98714.03;5093682;28;20512;-49
2021/08/25 01:45:41;;;;;;;5.65;2.85;;;;;;;19.81;55.79;98712.44;5112056;28;20489;-50
2021/08/25 01:48:06;;;;;;;5.72;3.35;;;;;;;19.85;55.95;98709.00;5112036;28;20471;-49
2021/08/25 01:50:32;;;;;;;3.60;2.33;;;;;;;19.95;55.68;98711.69;5093663;28;20106;-50
2021/08/25 01:52:58;;;;;;;6.55;2.03;;;;;;;20.00;55.52;98721.59;5112022;28;20489;-50
2021/08/25 01:55:23;;;;;;;5.32;2.00;;;;;;;20.03;55.68;98723.72;5111959;28;20476;-50
2021/08/25 01:57:49;;;;;;;4.22;2.67;;;;;;;20.01;55.45;98723.19;5093599;28;20035;-50
2021/08/25 02:00:16;;;;;;;7.80;2.20;;;;;;;20.01;55.52;98723.19;5111902;28;20584;-50
2021/08/25 02:02:41;;;;;;;4.75;2.13;;;;;;;19.96;55.59;98720.50;5093493;28;20026;-50
2021/08/25 02:05:08;;;;;;;5.43;2.42;;;;;;;20.03;55.91;98722.94;5093488;28;20115;-49
2021/08/25 02:07:33;;;;;;;7.30;2.30;;;;;;;20.12;55.64;98718.69;5111835;28;20032;-50
2021/08/25 02:09:59;;;;;;;9.20;4.50;;;;;;;20.12;55.54;98708.84;5093548;28;20073;-49
2021/08/25 02:12:25;;;;;;;7.07;3.70;;;;;;;20.11;55.76;98717.88;5082476;28;20063;-50
2021/08/25 02:14:50;;;;;;;55.70;50.28;;;;;;;20.08;55.65;98715.75;5069935;28;20118;-50
2021/08/25 02:17:16;;;;;;;87.22;61.97;;;;;;;20.03;55.83;98713.06;5071162;28;20021;-50
2021/08/25 02:19:41;;;;;;;54.78;49.65;;;;;;;20.13;55.87;98713.09;5069900;28;20036;-50
2021/08/25 02:22:07;;;;;;;10.57;4.78;;;;;;;20.29;55.63;98713.16;5069747;28;20027;-50
2021/08/25 02:24:33;;;;;;;30.33;27.33;;;;;;;20.32;55.37;98710.75;5071127;28;20032;-50
2021/08/25 02:26:59;;;;;;;8.25;4.68;;;;;;;20.22;55.28;98720.56;5071153;28;20044;-50
2021/08/25 02:29:25;;;;;;;8.07;6.70;;;;;;;20.11;55.76;98712.56;5070993;28;20074;-49
2021/08/25 02:31:51;;;;;;;7.88;2.63;;;;;;;20.04;56.19;98719.19;5072065;28;20396;-50
2021/08/25 02:34:16;;;;;;;4.65;2.35;;;;;;;19.95;56.37;98713.56;5074746;28;20024;-50
2021/08/25 02:36:42;;;;;;;11.88;3.22;;;;;;;19.89;56.52;98709.28;5074619;28;20034;-50
2021/08/25 02:39:07;;;;;;;5.95;4.00;;;;;;;19.87;56.50;98704.22;5074605;28;20028;-50
2021/08/25 02:41:33;;;;;;;12.85;10.88;;;;;;;19.88;56.42;98697.00;5074539;28;20021;-49
2021/08/25 02:43:59;;;;;;;6.72;6.13;;;;;;;19.84;56.59;98693.28;5073140;28;20021;-50
2021/08/25 02:46:24;;;;;;;5.07;3.15;;;;;;;19.78;56.39;98694.31;5074488;28;20024;-50
2021/08/25 02:48:51;;;;;;;10.43;7.80;;;;;;;19.75;56.57;98693.78;5073201;28;20452;-50
2021/08/25 02:51:17;;;;;;;12.73;3.83;;;;;;;19.74;56.69;98696.72;5074394;28;20025;-49
2021/08/25 02:53:43;;;;;;;5.22;3.60;;;;;;;19.78;56.51;98689.00;5074347;28;20037;-49
2021/08/25 02:56:08;;;;;;;27.75;24.98;;;;;;;19.82;56.98;98701.53;5074302;28;20016;-49
2021/08/25 02:58:34;;;;;;;9.40;3.00;;;;;;;19.94;56.41;98701.31;5072955;28;20024;-50
2021/08/25 03:01:00;;;;;;;5.22;3.63;;;;;;;19.89;56.33;98701.28;5072883;28;20013;-50
2021/08/25 03:03:25;;;;;;;52.15;46.97;;;;;;;19.72;56.47;98704.97;5073046;28;20035;-50
2021/08/25 03:05:51;;;;;;;12.55;5.00;;;;;;;19.54;57.09;98702.72;5074066;28;20028;-50
2021/08/25 03:08:17;;;;;;;5.05;3.30;;;;;;;19.37;57.31;98705.53;5074109;28;20458;-50
2021/08/25 03:10:43;;;;;;;10.05;3.35;;;;;;;19.16;57.77;98709.94;5073982;28;20024;-49
2021/08/25 03:13:09;;;;;;;14.15;11.93;;;;;;;18.98;57.93;98703.16;5100760;28;20047;-50
2021/08/25 03:15:35;;;;;;;6.03;3.22;;;;;;;18.79;58.70;98697.41;5113222;28;20099;-50
2021/08/25 03:18:01;;;;;;;10.63;5.88;;;;;;;18.71;59.06;98697.84;5096235;28;20063;-50
2021/08/25 03:20:27;;;;;;;21.40;17.73;;;;;;;18.67;59.07;98697.56;5114421;28;20433;-50
2021/08/25 03:22:53;;;;;;;15.30;7.15;;;;;;;18.64;59.30;98697.28;5114354;28;20547;-50
2021/08/25 03:25:18;;;;;;;81.15;63.30;;;;;;;18.69;59.33;98700.78;5095988;28;20051;-49
2021/08/25 03:27:44;;;;;;;24.33;7.47;;;;;;;18.99;58.88;98693.31;5114310;28;20053;-50
2021/08/25 03:30:10;;;;;;;91.00;61.30;;;;;;;19.08;58.85;98689.13;5114244;28;20024;-50
2021/08/25 03:32:36;;;;;;;47.30;6.00;;;;;;;19.33;58.37;98685.81;5095874;28;20038;-50
2021/08/25 03:35:02;;;;;;;34.35;8.38;;;;;;;19.30;57.96;98681.81;5114141;28;20011;-49
2021/08/25 03:37:28;;;;;;;47.92;8.90;;;;;;;18.99;57.91;98680.81;5114094;28;20028;-50
2021/08/25 03:39:53;;;;;;;17.77;3.42;;;;;;;18.84;58.97;98689.47;5114047;28;20545;-50
2021/08/25 03:42:19;;;;;;;19.65;7.38;;;;;;;19.03;58.48;98691.75;5113964;28;20603;-50
2021/08/25 03:44:45;;;;;;;20.63;10.35;;;;;;;19.14;58.16;98693.44;5114001;28;20020;-50
2021/08/25 03:47:10;;;;;;;23.02;5.20;;;;;;;19.08;58.17;98695.25;5113931;28;20024;-49
2021/08/25 03:49:36;;;;;;;10.15;2.78;;;;;;;19.01;58.35;98699.19;5095529;28;20047;-50
2021/08/25 03:52:05;;;;;;;22.50;3.50;;;;;;;18.99;58.71;98696.75;5113864;28;20080;-50
2021/08/25 03:54:31;;;;;;;10.80;7.55;;;;;;;19.04;58.57;98688.03;5095695;28;20110;-50
2021/08/25 03:56:56;;;;;;;15.65;9.23;;;;;;;19.03;58.50;98689.09;5113699;28;20157;-50
2021/08/25 03:59:23;;;;;;;18.40;5.88;;;;;;;18.89;58.66;98691.38;5113706;28;20047;-50
2021/08/25 04:01:50;;;;;;;18.45;15.77;;;;;;;18.86;58.95;98694.56;5113571;28;20389;-50
2021/08/25 04:04:17;;;;;;;10.13;5.30;;;;;;;18.79;58.66;98699.25;5113553;28;20023;-50
2021/08/25 04:06:44;;;;;;;29.58;25.42;;;;;;;18.62;58.95;98699.38;5113494;28;20500;-50
2021/08/25 04:09:10;;;;;;;7.30;6.60;;;;;;;18.44;59.11;98704.00;5095173;28;20485;-50
2021/08/25 04:11:35;;;;;;;15.05;3.60;;;;;;;18.33;59.46;98710.25;5094915;28;20023;-50
2021/08/25 04:14:01;;;;;;;8.15;6.25;;;;;;;18.21;59.45;98709.59;5113408;28;20028;-50
2021/08/25 04:16:28;;;;;;;11.90;6.15;;;;;;;18.15;59.81;98720.16;5095015;28;20559;-50
2021/08/25 04:18:53;;;;;;;11.90;9.98;;;;;;;18.13;60.13;98726.78;5094979;28;20066;-50
2021/08/25 04:21:19;;;;;;;6.95;4.20;;;;;;;18.06;60.08;98711.03;5113187;28;20045;-50
2021/08/25 04:23:45;;;;;;;43.95;39.45;;;;;;;17.99;60.19;98717.56;5094843;28;20020;-50
2021/08/25 04:26:11;;;;;;;9.73;5.00;;;;;;;17.89;60.42;98716.41;5113173;28;20124;-50
2021/08/25 04:28:37;;;;;;;8.35;4.40;;;;;;;17.87;60.70;98717.72;5094758;28;20023;-50
2021/08/25 04:31:03;;;;;;;14.43;5.20;;;;;;;17.79;60.98;98726.88;5094786;28;20519;-49
2021/08/25 04:33:29;;;;;;;12.13;7.32;;;;;;;17.77;61.10;98737.75;5095010;28;20031;-50
2021/08/25 04:35:54;;;;;;;6.93;3.10;;;;;;;17.75;60.80;98733.72;5094664;28;20016;-49
2021/08/25 04:38:20;;;;;;;9.40;2.90;;;;;;;17.68;60.99;98733.88;5094598;28;20034;-50
2021/08/25 04:40:45;;;;;;;6.75;3.10;;;;;;;17.63;61.11;98735.69;5112923;28;20439;-50
2021/08/25 04:43:11;;;;;;;5.20;2.90;;;;;;;17.52;61.39;98745.34;5112708;28;20032;-50
2021/08/25 04:45:40;;;;;;;14.07;5.22;;;;;;;17.44;61.89;98741.25;5112790;28;20019;-49
2021/08/25 04:48:05;;;;;;;11.00;3.92;;;;;;;17.44;61.72;98749.22;5094445;28;20028;-49
2021/08/25 04:50:32;;;;;;;20.50;4.40;;;;;;;17.47;61.68;98748.75;5112678;28;20111;-49
2021/08/25 04:52:58;;;;;;;19.23;5.30;;;;;;;17.52;62.07;98740.84;5094340;28;20020;-49
2021/08/25 04:55:23;;;;;;;17.58;4.13;;;;;;;17.59;61.89;98746.00;5112056;28;20036;-50
2021/08/25 04:57:49;;;;;;;23.75;4.70;;;;;;;17.63;62.39;98738.34;5094285;28;20019;-50
2021/08/25 05:00:15;;;;;;;18.05;4.10;;;;;;;18.04;61.70;98737.03;5112524;28;20481;-50
2021/08/25 05:02:44;;;;;;;15.43;6.25;;;;;;;18.40;60.15;98729.47;5112511;28;20024;-49
2021/08/25 05:05:11;;;;;;;6.43;3.60;;;;;;;18.28;60.39;98732.25;5112457;28;20024;-50
2021/08/25 05:07:37;;;;;;;17.80;4.40;;;;;;;18.04;60.58;98739.69;5112425;28;20016;-49
2021/08/25 05:10:02;;;;;;;16.40;4.78;;;;;;;18.04;60.96;98747.66;5094097;28;20027;-48
2021/08/25 05:12:28;;;;;;;15.70;4.43;;;;;;;18.11;60.89;98755.44;5093897;28;20135;-50
2021/08/25 05:14:54;;;;;;;14.32;5.25;;;;;;;18.33;60.57;98755.41;5112379;28;20024;-50
2021/08/25 05:17:19;;;;;;;8.57;3.47;;;;;;;18.74;59.54;98759.28;5112329;28;20027;-50
2021/08/25 05:19:45;;;;;;;10.00;3.40;;;;;;;19.16;58.45;98749.84;5094022;28;20484;-50
2021/08/25 05:22:11;;;;;;;8.90;4.25;;;;;;;19.61;57.37;98753.06;5112138;28;20393;-50
2021/08/25 05:24:36;;;;;;;13.60;4.25;;;;;;;20.00;56.19;98750.91;5112227;28;20019;-50
2021/08/25 05:27:03;;;;;;;9.63;3.70;;;;;;;20.38;55.07;98748.88;5112213;28;20020;-50
2021/08/25 05:29:29;;;;;;;8.65;3.22;;;;;;;20.73;53.94;98758.84;5112217;28;20020;-50
2021/08/25 05:31:54;;;;;;;8.45;3.72;;;;;;;21.06;53.10;98753.25;5112170;28;20501;-50
2021/08/25 05:34:20;;;;;;;11.50;4.43;;;;;;;20.99;52.82;98753.53;5093908;28;20011;-50
2021/08/25 05:36:46;;;;;;;6.60;3.05;;;;;;;21.09;52.84;98755.41;5093814;28;20032;-50
2021/08/25 05:39:11;;;;;;;8.63;4.20;;;;;;;21.59;51.91;98758.28;5093798;28;20574;-50
2021/08/25 05:41:37;;;;;;;6.68;3.17;;;;;;;22.12;50.44;98755.97;5112126;28;20027;-50
2021/08/25 05:44:04;;;;;;;12.27;3.28;;;;;;;22.45;49.64;98754.50;5093710;28;20020;-50
2021/08/25 05:46:34;;;;;;;11.68;4.72;;;;;;;22.52;48.71;98759.56;5112039;28;20031;-49
2021/08/25 05:49:00;;;;;;;7.95;3.13;;;;;;;22.62;49.17;98750.66;5112044;28;20367;-50
2021/08/25 05:51:26;;;;;;;21.23;3.58;;;;;;;22.57;48.78;98748.00;5093713;28;20060;-50
2021/08/25 05:53:52;;;;;;;11.50;3.97;;;;;;;22.14;49.68;98749.28;5111970;28;20523;-50
2021/08/25 05:56:19;;;;;;;20.52;18.48;;;;;;;21.82;50.37;98762.25;5093572;28;20027;-50
2021/08/25 05:58:45;;;;;;;8.73;7.93;;;;;;;21.68;50.79;98760.13;5111925;28;20032;-49
2021/08/25 06:01:15;;;;;;;9.77;4.32;;;;;;;22.05;50.74;98756.25;5111878;28;20490;-50
2021/08/25 06:03:41;;;;;;;9.20;3.50;;;;;;;22.70;49.10;98752.75;5111870;28;20024;-50
2021/08/25 06:06:08;;;;;;;7.57;3.42;;;;;;;23.20;47.90;98745.44;5093510;28;20084;-50
2021/08/25 06:08:33;;;;;;;8.13;5.30;;;;;;;23.80;46.10;98746.97;5115787;28;20026;-50
2021/08/25 06:10:59;;;;;;;6.53;3.72;;;;;;;24.38;45.12;98756.72;5115839;28;20489;-50
2021/08/25 06:13:25;;;;;;;9.38;3.70;;;;;;;24.97;43.55;98752.66;5078137;28;20048;-50
2021/08/25 06:15:51;;;;;;;9.68;3.85;;;;;;;25.56;43.08;98760.25;5073756;28;20052;-49
2021/08/25 06:18:16;;;;;;;5.55;3.33;;;;;;;25.91;41.33;98754.19;5073674;28;20450;-49
2021/08/25 06:20:42;;;;;;;7.82;3.70;;;;;;;25.94;41.76;98754.69;5073620;28;20025;-50
2021/08/25 06:23:08;;;;;;;11.38;6.53;;;;;;;26.25;40.96;98750.28;5074839;28;20471;-50
2021/08/25 06:25:33;;;;;;;9.52;3.58;;;;;;;26.55;40.05;98749.91;5073535;28;20020;-50
2021/08/25 06:28:01;;;;;;;14.13;7.35;;;;;;;27.02;38.53;98734.25;5073458;28;20139;-50
2021/08/25 06:30:27;;;;;;;14.63;4.20;;;;;;;27.16;38.54;98739.56;5074687;28;20111;-50
2021/08/25 06:32:53;;;;;;;16.08;12.88;;;;;;;27.37;37.78;98753.38;5074785;28;20107;-50
2021/08/25 06:35:20;;;;;;;8.63;5.05;;;;;;;27.20;37.61;98746.72;5074583;28;20024;-50
2021/08/25 06:37:46;;;;;;;22.52;20.35;;;;;;;26.69;38.77;98748.00;5074639;28;20474;-50
2021/08/25 06:40:15;;;;;;;26.83;18.45;;;;;;;26.68;39.05;98746.38;5073249;28;20047;-50
2021/08/25 06:42:45;;;;;;;30.45;25.83;;;;;;;26.56;38.90;98738.03;5074497;28;20025;-50
2021/08/25 06:45:11;;;;;;;16.30;7.55;;;;;;;26.77;38.98;98735.69;5074467;28;20502;-50
2021/08/25 06:47:37;;;;;;;39.28;35.22;;;;;;;27.00;38.91;98733.78;5074494;28;20048;-50
2021/08/25 06:50:05;;;;;;;10.18;7.35;;;;;;;27.07;38.22;98723.38;5074363;28;20457;-50
2021/08/25 06:52:31;;;;;;;15.98;6.53;;;;;;;27.24;38.28;98720.00;5074413;28;20407;-50
2021/08/25 06:54:57;;;;;;;8.27;4.50;;;;;;;26.76;38.63;98729.50;5074371;28;20546;-50
2021/08/25 06:57:23;;;;;;;11.48;4.38;;;;;;;26.20;39.77;98734.25;5072929;28;20112;-50
2021/08/25 06:59:49;;;;;;;10.27;4.47;;;;;;;25.65;40.80;98732.38;5074254;28;20551;-50
2021/08/25 07:02:14;;;;;;;5.57;3.63;;;;;;;25.23;41.72;98736.94;5074140;28;20021;-50
2021/08/25 07:04:45;;;;;;;5.82;3.53;;;;;;;25.10;42.04;98740.34;5072783;28;20021;-50
2021/08/25 07:07:12;;;;;;;10.63;4.03;;;;;;;25.09;42.12;98739.53;5074154;28;20512;-50
2021/08/25 07:09:38;;;;;;;15.02;11.80;;;;;;;25.05;42.37;98735.03;5072724;28;20502;-50
2021/08/25 07:12:04;;;;;;;48.30;37.83;;;;;;;24.76;42.92;98737.94;5072502;28;20109;-49
2021/08/25 07:14:30;;;;;;;62.72;56.35;;;;;;;24.46;43.66;98737.28;5072677;28;20402;-49
2021/08/25 07:16:55;;;;;;;66.60;59.30;;;;;;;24.42;43.68;98736.25;5073714;28;20020;-50
2021/08/25 07:19:21;;;;;;;57.60;48.55;;;;;;;24.31;44.06;98738.31;5072476;28;20494;-50
2021/08/25 07:21:47;;;;;;;46.72;42.20;;;;;;;24.16;44.39;98735.81;5074072;28;20027;-49
2021/08/25 07:24:13;;;;;;;20.05;17.48;;;;;;;24.00;44.84;98735.22;5073723;28;20016;-50
2021/08/25 07:26:39;;;;;;;6.13;4.78;;;;;;;23.94;44.57;98734.47;5072464;28;20032;-50
2021/08/25 07:29:05;;;;;;;12.65;4.07;;;;;;;24.18;44.37;98728.28;5072409;28;20020;-49
2021/08/25 07:31:31;;;;;;;9.85;4.10;;;;;;;24.40;44.30;98728.50;5072342;28;20028;-50
2021/08/25 07:33:56;;;;;;;6.55;3.85;;;;;;;25.66;42.28;98722.44;5072323;28;20571;-49
2021/08/25 07:36:22;;;;;;;5.03;3.63;;;;;;;27.30;38.82;98711.44;5072233;28;20020;-49
2021/08/25 07:38:48;;;;;;;6.72;3.90;;;;;;;29.31;35.59;98713.53;5073557;28;20025;-50
2021/08/25 07:41:15;;;;;;;5.68;3.60;;;;;;;30.50;33.22;98710.81;5073507;28;20043;-50
2021/08/25 07:43:41;;;;;;;4.15;3.42;;;;;;;30.00;33.23;98712.41;5072073;28;20021;-50
2021/08/25 07:46:06;;;;;;;8.82;4.72;;;;;;;29.02;35.29;98707.72;5073295;28;20035;-49
2021/08/25 07:48:32;;;;;;;3.50;3.00;;;;;;;29.17;34.88;98713.75;5072029;28;20020;-50
2021/08/25 07:50:58;;;;;;;8.52;4.20;;;;;;;29.39;34.70;98705.38;5073169;28;20027;-50
2021/08/25 07:53:23;;;;;;;6.80;4.45;;;;;;;30.73;32.91;98714.72;5071925;28;20517;-50
2021/08/25 07:55:49;;;;;;;4.25;3.85;;;;;;;31.57;31.25;98705.53;5073187;28;20266;-50
2021/08/25 07:58:15;;;;;;;9.00;4.07;;;;;;;31.18;31.63;98703.13;5071832;28;20028;-50
2021/08/25 08:00:44;;;;;;;6.93;3.97;;;;;;;32.08;30.59;98707.91;5071763;28;20123;-50
2021/08/25 08:03:09;;;;;;;7.88;3.63;;;;;;;32.98;29.25;98708.44;5071633;28;20107;-50
2021/08/25 08:05:35;;;;;;;5.88;2.90;;;;;;;33.99;27.77;98714.41;5072941;28;20107;-50
2021/08/25 08:08:02;;;;;;;3.97;3.15;;;;;;;35.17;25.89;98707.75;5071565;28;20462;-50
2021/08/25 08:10:27;;;;;;;6.32;4.35;;;;;;;35.87;25.29;98705.72;5071527;28;20036;-51
2021/08/25 08:12:53;;;;;;;9.57;4.20;;;;;;;36.47;24.63;98705.72;5094772;28;20055;-50
2021/08/25 08:15:19;;;;;;;8.77;3.05;;;;;;;36.79;23.76;98705.31;5113676;28;20550;-50
2021/08/25 08:17:46;;;;;;;3.50;3.20;;;;;;;36.64;24.46;98707.09;5113391;28;20047;-50
2021/08/25 08:20:16;;;;;;;7.45;4.43;;;;;;;37.05;23.41;98709.84;5113212;28;20051;-50
2021/08/25 08:22:42;;;;;;;11.07;4.45;;;;;;;37.70;22.68;98718.63;5113161;28;20028;-50
2021/08/25 08:25:14;;;;;;;8.60;3.55;;;;;;;38.00;22.18;98712.13;5113393;28;20421;-50
2021/08/25 08:27:40;;;;;;;5.10;3.35;;;;;;;37.60;22.29;98709.16;5113217;28;20397;-50
2021/08/25 08:30:06;;;;;;;6.85;3.35;;;;;;;36.67;23.56;98717.31;5112219;28;20028;-50
2021/08/25 08:32:33;;;;;;;8.50;3.45;;;;;;;35.90;24.32;98722.16;5113081;28;20020;-50
2021/08/25 08:34:59;;;;;;;7.57;3.58;;;;;;;34.47;26.13;98723.19;5113030;28;20557;-50
2021/08/25 08:37:28;;;;;;;4.50;3.38;;;;;;;33.14;26.93;98731.06;5094664;28;20106;-51
2021/08/25 08:39:53;;;;;;;16.45;8.63;;;;;;;31.88;28.91;98732.09;5094629;28;20032;-50
2021/08/25 08:42:33;;;;;;;12.32;6.10;;;;;;;30.79;30.86;98728.88;5112799;28;20020;-50
2021/08/25 08:45:02;;;;;;;6.35;3.20;;;;;;;30.75;31.15;98728.75;5094578;28;20032;-50
2021/08/25 08:47:28;;;;;;;9.07;4.10;;;;;;;31.50;30.24;98729.75;5112815;28;20031;-50
2021/08/25 08:49:57;;;;;;;7.07;4.13;;;;;;;32.16;29.45;98726.75;5112730;28;20059;-50
2021/08/25 08:52:23;;;;;;;5.65;3.53;;;;;;;32.72;29.05;98733.38;5112685;28;20405;-47
2021/08/25 08:54:51;;;;;;;5.10;3.22;;;;;;;32.82;28.62;98736.41;5112730;28;20019;-48
2021/08/25 08:57:18;;;;;;;11.25;4.00;;;;;;;33.18;28.42;98742.00;5094316;28;20050;-48
2021/08/25 08:59:44;;;;;;;7.85;3.30;;;;;;;33.63;27.93;98736.16;5112568;28;20493;-47
2021/08/25 09:02:11;;;;;;;3.58;2.72;;;;;;;34.22;26.63;98736.31;5112444;28;20031;-47
2021/08/25 09:04:46;;;;;;;7.80;3.38;;;;;;;34.78;26.16;98741.34;5112554;28;20086;-50
2021/08/25 09:07:19;;;;;;;9.98;6.90;;;;;;;34.85;25.66;98739.91;5112466;28;20025;-51
2021/08/25 09:09:54;;;;;;;10.18;5.90;;;;;;;35.11;25.88;98733.75;5112492;28;20024;-50
2021/08/25 09:12:20;;;;;;;10.93;5.43;;;;;;;35.82;25.32;98733.34;5112104;28;20052;-50
2021/08/25 09:14:46;;;;;;;12.38;5.03;;;;;;;35.49;25.25;98738.28;5094139;28;20035;-50
2021/08/25 09:17:11;;;;;;;5.03;2.97;;;;;;;35.27;25.64;98726.25;5112626;28;20062;-51
2021/08/25 09:19:37;;;;;;;6.97;3.20;;;;;;;35.70;25.13;98729.69;5094014;28;20042;-50
2021/08/25 09:22:18;;;;;;;6.90;2.78;;;;;;;36.14;24.49;98729.13;5093865;28;20054;-50
2021/08/25 09:24:43;;;;;;;3.35;3.05;;;;;;;36.54;24.04;98724.16;5093481;28;20039;-50
2021/08/25 09:27:15;;;;;;;5.78;3.25;;;;;;;36.35;23.96;98722.38;5112286;28;20027;-50
2021/08/25 09:29:43;;;;;;;6.68;4.07;;;;;;;36.83;23.50;98716.28;5112267;28;20431;-50
2021/08/25 09:32:21;;;;;;;5.32;2.80;;;;;;;36.80;23.35;98726.03;5112113;28;20024;-50
2021/08/25 09:34:54;;;;;;;6.18;3.00;;;;;;;36.94;23.72;98725.38;5112460;28;20016;-50
2021/08/25 09:37:20;;;;;;;8.00;2.70;;;;;;;37.57;22.80;98726.34;5112109;28;20417;-49
2021/08/25 09:39:55;;;;;;;8.18;3.13;;;;;;;37.82;22.05;98732.00;5112164;28;20024;-50
2021/08/25 09:42:22;;;;;;;4.25;2.83;;;;;;;37.15;22.59;98717.41;5115881;28;20024;-50
2021/08/25 09:45:04;;;;;;;10.20;3.50;;;;;;;35.63;24.62;98721.34;5097969;28;20081;-50
2021/08/25 09:47:54;;;;;;;9.05;3.80;;;;;;;34.60;25.92;98721.09;5116329;28;20027;-50
2021/08/25 09:50:25;;;;;;;14.00;3.53;;;;;;;34.81;26.18;98710.63;5116353;28;20103;-50
2021/08/25 09:52:51;;;;;;;27.30;8.23;;;;;;;35.83;24.78;98713.09;5116250;28;20039;-50
2021/08/25 09:55:32;;;;;;;8.23;3.67;;;;;;;36.74;23.59;98706.41;5116026;28;20023;-51
2021/08/25 09:58:00;;;;;;;8.18;3.97;;;;;;;37.69;22.81;98703.34;5116025;28;20078;-51
2021/08/25 10:00:26;;;;;;;7.85;3.17;;;;;;;37.60;22.67;98700.16;5097726;28;20497;-50
2021/08/25 10:02:53;;;;;;;4.63;3.10;;;;;;;37.80;22.43;98697.94;5115922;28;20508;-50
2021/08/25 10:05:26;;;;;;;3.90;2.83;;;;;;;38.45;21.65;98693.53;5115956;28;20020;-51
2021/08/25 10:07:52;;;;;;;5.50;3.20;;;;;;;38.43;21.36;98698.63;5097588;28;20039;-50
2021/08/25 10:10:18;;;;;;;9.00;5.30;;;;;;;37.28;22.05;98697.94;5115836;28;20039;-50
2021/08/25 10:12:48;;;;;;;10.50;3.83;;;;;;;36.07;23.86;98690.00;5115509;28;20062;-51
2021/08/25 10:15:38;;;;;;;7.28;3.30;;;;;;;34.70;25.43;98696.00;5115718;28;20046;-50
2021/08/25 10:18:37;;;;;;;7.13;4.13;;;;;;;33.91;26.61;98694.38;5115798;28;20500;-50
2021/08/25 10:21:24;;;;;;;4.97;3.95;;;;;;;33.73;27.02;98695.94;5115758;28;20062;-50
2021/08/25 10:23:58;;;;;;;5.72;2.83;;;;;;;34.20;27.03;98686.84;5097042;28;20019;-50
2021/08/25 10:26:27;;;;;;;5.97;2.70;;;;;;;34.65;26.04;98681.84;5115469;28;20024;-50
2021/08/25 10:28:58;;;;;;;4.32;2.85;;;;;;;34.66;25.71;98684.25;5115493;28;20041;-50
2021/08/25 10:31:26;;;;;;;4.57;2.85;;;;;;;34.51;26.24;98687.81;5115416;28;20046;-48
2021/08/25 10:34:12;;;;;;;5.28;3.05;;;;;;;34.17;26.32;98682.91;5097046;28;20076;-48
2021/08/25 10:36:38;;;;;;;3.45;2.63;;;;;;;34.14;26.64;98685.53;5096997;28;20036;-50
2021/08/25 10:39:37;;;;;;;5.05;3.05;;;;;;;35.07;25.79;98684.56;5115230;28;20024;-50
2021/08/25 10:42:04;;;;;;;4.88;2.67;;;;;;;36.14;24.56;98677.22;5115192;28;20028;-50
2021/08/25 10:44:41;;;;;;;5.55;2.38;;;;;;;36.86;23.37;98661.59;5115230;28;20020;-50
2021/08/25 10:47:09;;;;;;;6.05;3.33;;;;;;;37.17;23.38;98663.06;5096773;28;20411;-50
2021/08/25 10:50:08;;;;;;;2.55;2.35;;;;;;;37.34;23.30;98660.84;5115108;28;20378;-50
2021/08/25 10:52:34;;;;;;;8.63;3.35;;;;;;;37.20;23.62;98664.25;5114190;28;20115;-50
2021/08/25 10:54:59;;;;;;;4.95;2.47;;;;;;;37.28;23.30;98656.88;5115038;28;20095;-50
2021/08/25 10:57:25;;;;;;;25.67;23.05;;;;;;;37.27;23.63;98649.81;5114939;28;20046;-50
2021/08/25 10:59:52;;;;;;;6.43;3.95;;;;;;;37.66;22.95;98650.13;5114914;28;20030;-50
2021/08/25 11:02:18;;;;;;;5.47;2.38;;;;;;;37.91;22.52;98655.72;5114777;28;20023;-51
2021/08/25 11:04:44;;;;;;;5.03;2.45;;;;;;;38.19;22.17;98654.28;5096474;28;20502;-50
2021/08/25 11:07:12;;;;;;;8.27;3.38;;;;;;;37.93;22.19;98642.44;5096411;28;20245;-51
2021/08/25 11:09:42;;;;;;;10.45;7.38;;;;;;;36.76;23.42;98641.22;5096311;28;20562;-50
2021/08/25 11:12:13;;;;;;;10.50;8.10;;;;;;;36.64;23.93;98637.97;5114400;28;20036;-51
2021/08/25 11:14:58;;;;;;;7.88;3.75;;;;;;;36.58;24.02;98635.56;5114689;28;20024;-51
2021/08/25 11:17:31;;;;;;;3.05;2.47;;;;;;;37.26;23.28;98640.06;5114637;28;20045;-51
2021/08/25 11:20:00;;;;;;;5.32;2.28;;;;;;;37.67;22.56;98640.75;5114416;28;20012;-50
2021/08/25 11:22:34;;;;;;;9.52;2.80;;;;;;;37.92;22.52;98638.09;5096019;28;20034;-51
2021/08/25 11:25:07;;;;;;;10.82;3.08;;;;;;;37.89;22.29;98641.63;5114490;28;20428;-51
2021/08/25 11:27:43;;;;;;;3.33;2.10;;;;;;;37.57;22.58;98635.97;5114736;28;20031;-50
2021/08/25 11:30:26;;;;;;;3.83;2.30;;;;;;;37.34;22.22;98633.47;5114638;28;20076;-50
2021/08/25 11:33:09;;;;;;;8.30;3.20;;;;;;;36.97;23.28;98639.81;5114361;28;20107;-51